x

8557380 - Lewes, De (lwsd1) Weather Station

8:54am - Sun 26th Mar 2017 All times are EDT. -4 hours from GMT.

  • Wind
    22mph, 25mph gusts
  • Sea Temp 46°f
  • Sea Pressure 1027.9mb
  • 8557380 - Lewes, De
  • 8557380 - Lewes, De

More Historic Weather Station data

Upgrade to MSW Pro to gain access to the past 30 days of data for over 8000 Wavebouys and Weather Stations around the globe.

Join Pro

Comparision Forecast

View Surf forecast
   
Sun 03/26 8:54am 22 25 mph 1027.9mb 46f -
8:48am 17 23 mph 1027.9mb 46f -
8:42am 21 25 mph 1027.9mb 46f -
8:36am 20 23 mph 1027.9mb 46f -
8:30am 20 23 mph 1027.9mb 47f -
8:24am 18 24 mph 1027.9mb 47f -
8:18am 16 22 mph 1027.8mb 47f -
8:12am 21 24 mph 1027.7mb 47f -
8:06am 22 26 mph 1027.6mb 47f -
8:00am 20 22 mph 1027.5mb 47f -
7:54am 21 25 mph 1027.4mb 47f -
7:48am 23 29 mph 1027.4mb 47f -
7:42am 22 26 mph 1027.2mb 47f -
7:36am 20 25 mph 1027.1mb 47f -
7:30am 23 28 mph 1027mb 47f -
7:24am 22 28 mph 1027.1mb 47f -
7:18am 22 28 mph 1027.1mb 47f -
7:12am 23 28 mph 1026.9mb 47f -
7:06am 24 28 mph 1026.8mb 47f -
7:00am 22 28 mph 1026.8mb 47f -
6:54am 22 26 mph 1026.8mb 47f -
6:48am 22 25 mph 1026.9mb 47f -
6:42am 21 25 mph 1026.8mb 47f -
6:36am 22 26 mph 1026.8mb 47f -
6:30am 20 24 mph 1026.9mb 47f -
6:24am 20 25 mph 1026.9mb 47f -
6:18am 21 28 mph 1026.8mb 47f -
6:12am 22 26 mph 1026.7mb 47f -
6:06am 21 26 mph 1026.6mb 47f -
6:00am 22 25 mph 1026.5mb 47f -
5:54am 23 26 mph 1026.5mb 47f -
5:48am 23 26 mph 1026.3mb 47f -
5:42am 24 28 mph 1026.4mb 47f -
5:36am 23 29 mph 1026.4mb 47f -
5:30am 24 29 mph 1026.5mb 47f -
5:24am 22 26 mph 1026.7mb 47f -
5:18am 21 25 mph 1026.8mb 46f -
5:12am 21 25 mph 1026.7mb 47f -
5:06am 22 26 mph 1026.6mb 47f -
5:00am 22 26 mph 1026.3mb 47f -
4:54am 22 26 mph 1026.3mb 47f -
4:48am 24 29 mph 1026.2mb 47f -
4:42am 23 29 mph 1026.1mb 47f -
4:36am 25 30 mph 1025.9mb 47f -
4:30am 22 26 mph 1025.9mb 47f -
4:24am 22 26 mph 1025.9mb 47f -
4:18am 23 26 mph 1026mb 47f -
4:12am 22 28 mph 1025.9mb 47f -
4:06am 22 28 mph 1025.9mb 47f -
4:00am 21 24 mph 1025.8mb 47f -
3:54am 20 23 mph 1025.9mb 47f -
3:48am 20 23 mph 1025.9mb 47f -
3:42am 20 24 mph 1025.9mb 47f -
3:36am 17 22 mph 1026mb 47f -
3:30am 17 21 mph 1025.8mb 47f -
3:24am 15 21 mph 1025.6mb 47f -
3:18am 16 21 mph 1025.5mb 47f -
3:12am 15 18 mph 1025.5mb 47f -
3:06am 17 22 mph 1025.5mb 47f -
3:00am 17 22 mph 1025.6mb 47f -
2:54am 16 20 mph 1025.8mb 47f -
2:48am 17 21 mph 1025.9mb 47f -
2:42am 16 21 mph 1026.1mb 47f -
2:36am 16 18 mph 1026.2mb 47f -
2:30am 18 21 mph 1026.1mb 47f -
2:24am 17 21 mph 1026mb 47f -
2:18am 16 20 mph - - -
2:12am 16 22 mph 1026.1mb 47f -
2:06am 17 21 mph 1026.1mb 47f -
2:00am 20 23 mph 1026mb 47f -
1:54am 18 23 mph 1026mb 47f -
1:48am 18 22 mph 1026.1mb 47f -
1:42am 20 23 mph 1026.1mb 47f -
1:36am 18 21 mph 1026.1mb 47f -
1:30am 18 22 mph 1026mb 47f -
1:24am 20 22 mph 1025.8mb 47f -
1:18am 17 21 mph 1025.9mb 47f -
1:12am 18 21 mph 1025.8mb 47f -
1:06am 18 22 mph 1025.8mb 47f -
1:00am 17 21 mph 1025.8mb 47f -
12:54am 17 22 mph 1025.6mb 47f -
12:48am 21 23 mph 1025.6mb 47f -
12:42am 22 25 mph 1025.6mb 47f -
12:36am 15 20 mph 1025.2mb 47f -
12:30am 17 23 mph 1024.9mb 47f -
12:24am 16 22 mph 1024.8mb 47f -
12:18am 21 26 mph 1025mb 47f -
12:12am 20 25 mph 1025.1mb 47f -
12:06am 18 23 mph 1025mb 47f -
12:00am 21 24 mph 1025.1mb 47f -
Sat 03/25 11:54pm 21 24 mph 1025mb 47f -
11:48pm 22 24 mph 1025mb 47f -
11:42pm 22 25 mph 1025mb 47f -
11:36pm 21 24 mph 1025mb 47f -
11:30pm 18 22 mph 1025mb 47f -
11:24pm 20 22 mph 1025.1mb 47f -
11:18pm 21 25 mph 1025.1mb 47f -
11:12pm 20 23 mph 1025.1mb 47f -
11:06pm 17 21 mph 1025.2mb 47f -
11:00pm 17 22 mph 1025.2mb 47f -
10:54pm 18 22 mph 1025.3mb 47f -
10:48pm 18 22 mph 1025.3mb 47f -
10:42pm 18 22 mph 1025.1mb 47f -
10:36pm 17 22 mph 1025mb 47f -
10:30pm 18 22 mph 1025mb 47f -
10:24pm 21 25 mph 1024.9mb 47f -
10:18pm 20 22 mph 1024.8mb 47f -
10:12pm 20 22 mph 1024.8mb 47f -
10:06pm 18 22 mph 1024.7mb 47f -
10:00pm 21 24 mph 1024.6mb 47f -
9:54pm 18 24 mph 1024.7mb 47f -
9:48pm 20 25 mph 1024.6mb 47f -
9:42pm 17 22 mph 1024.6mb 47f -
9:36pm 23 28 mph 1024.4mb 47f -
9:30pm 22 26 mph 1024.4mb 47f -
9:24pm 23 26 mph 1024.3mb 47f -
9:18pm 23 28 mph 1024.3mb 47f -
9:12pm 22 26 mph 1024.4mb 47f -
9:06pm 23 26 mph 1024.2mb 47f -
9:00pm 22 28 mph 1024.1mb 47f -
8:54pm 23 29 mph 1024.1mb 47f -
8:48pm 23 28 mph 1024.2mb - -
8:42pm 24 29 mph 1024mb - -
8:36pm 26 33 mph 1023.9mb - -
8:30pm 25 32 mph 1023.8mb 47f -
8:24pm 25 30 mph 1023.6mb 47f -
8:18pm 26 31 mph - - -
8:12pm 26 32 mph 1023.4mb 47f -
8:06pm 25 30 mph 1023.2mb 47f -
8:00pm 28 34 mph 1023mb 47f -
7:54pm 28 34 mph 1023mb 47f -
7:48pm 21 31 mph 1022.9mb 47f -
7:42pm 21 24 mph 1022.9mb 47f -
7:36pm 20 23 mph 1022.9mb 47f -
7:30pm 21 24 mph 1022.8mb 47f -
7:24pm 15 20 mph 1022.7mb 47f -
7:18pm 18 22 mph 1022.5mb 47f -
7:12pm  -  2 mph 1022mb 47f 72f
7:06pm 2 3 mph 1021.9mb 47f 73f
7:00pm 2 5 mph 1021.8mb 47f 73f
6:54pm 5 6 mph 1021.8mb 47f 73f
6:48pm 5 6 mph 1021.7mb - -
6:42pm 3 5 mph 1021.6mb 47f 74f
6:36pm 3 5 mph 1021.6mb 47f 74f
6:30pm 3 5 mph 1021.5mb 47f 74f
6:24pm 3 5 mph 1021.5mb 47f 74f
6:18pm 5 6 mph 1021.4mb 47f 74f
6:12pm 5 7 mph 1021.4mb 47f 75f
6:06pm 5 8 mph 1021.3mb 47f 75f
6:00pm 6 7 mph 1021.2mb 47f 75f
5:54pm 5 7 mph 1021.2mb 47f 74f
5:48pm 7 9 mph 1021.2mb 47f 74f
5:42pm 5 6 mph 1021.1mb 47f 73f
5:36pm 1 2 mph 1021mb 47f 73f
5:30pm 2 5 mph 1021mb 47f 73f
5:24pm 1 2 mph 1020.9mb 47f 73f
5:18pm 2 6 mph - - -
5:12pm 2 3 mph 1020.8mb 47f 74f
5:06pm 2 3 mph 1020.8mb 47f 73f
5:00pm 3 6 mph 1020.8mb 47f 73f
4:54pm 3 5 mph 1020.7mb 47f 74f
4:48pm 3 5 mph 1020.7mb 47f 73f
4:42pm 5 6 mph 1020.6mb 47f 74f
4:36pm 5 6 mph 1020.6mb 47f 74f
4:30pm 5 6 mph 1020.7mb 46f 74f
4:24pm 3 5 mph 1020.7mb 46f 73f
4:18pm 5
mph
1020.7mb 46f 73f
4:12pm 3
mph
1020.7mb 46f 73f
4:06pm 5
mph
1020.6mb 46f 73f
4:00pm 2 3 mph 1020.7mb 46f 74f
3:54pm 3 5 mph 1020.7mb 46f 73f
3:48pm 2 3 mph 1020.7mb 46f 72f
3:42pm 3 5 mph 1020.7mb 46f 72f
3:36pm 3 5 mph 1020.7mb 46f 71f
3:30pm 6
mph
1020.6mb 46f 70f
3:24pm 6 7 mph 1020.8mb 46f 69f
3:18pm 6 7 mph 1020.8mb 46f 68f
3:12pm 6
mph
1020.8mb 46f 68f
3:06pm 6
mph
1020.8mb 46f 68f
3:00pm 5 6 mph 1020.8mb 46f 67f
2:54pm 6
mph
1020.8mb 46f 66f
2:48pm 7 8 mph 1020.8mb 46f 65f
2:42pm 8
mph
1020.8mb 46f 65f
2:36pm 8
mph
1020.8mb 46f 64f
2:30pm 7
mph
1020.8mb 45f 64f
2:24pm 3 6 mph 1020.8mb 45f 65f
2:18pm 6 7 mph 1020.9mb 45f 64f
2:12pm 2 5 mph 1020.9mb 45f 64f
2:06pm 6
mph
1020.9mb 44f 64f
2:00pm 6
mph
1020.9mb 44f 60f
1:54pm 6 8 mph 1021mb 44f 61f
1:48pm 5 7 mph 1021mb 44f 67f
1:42pm 5 7 mph 1021.1mb 44f 69f
1:36pm 8 13 mph 1021mb 44f 74f
1:30pm 8 11 mph 1021mb 44f 74f
1:24pm 8 11 mph 1021.1mb 44f 74f
1:18pm 7 11 mph 1021.1mb 44f 74f
1:12pm 8 13 mph 1021.1mb 44f 73f
1:06pm 10 15 mph 1021.1mb 44f 73f
1:00pm 9 14 mph 1021.2mb 44f 72f
12:54pm 11 15 mph 1021.2mb 44f 72f
12:48pm 14 18 mph 1021.2mb 44f 72f
12:42pm 11 15 mph 1021.3mb 44f 72f
12:36pm 15 18 mph 1021.3mb 44f 71f
12:30pm 10 14 mph 1021.3mb 44f 72f
12:24pm 9 13 mph 1021.2mb 44f 71f
12:18pm 5 11 mph 1021.2mb 44f 71f
12:12pm 8 13 mph 1021.2mb 44f 71f
12:06pm 7 14 mph 1021.2mb 44f 71f
12:00pm 10 15 mph 1021.3mb 44f 70f
11:54am 7 11 mph 1021.3mb 45f 70f
11:48am 9 15 mph 1021.4mb 44f 69f
11:42am 11 15 mph 1021.5mb 44f 69f
11:36am 14 18 mph 1021.6mb 44f 68f
11:30am 13 16 mph 1021.7mb 44f 68f
11:24am 15 18 mph 1021.7mb 44f 68f
11:18am 11 18 mph 1021.6mb 44f 68f
11:12am 8 11 mph 1021.7mb 44f 68f
11:06am 10 17 mph 1021.8mb 44f 68f
11:00am 7 14 mph 1021.8mb 44f 67f
10:54am 11 17 mph 1021.9mb 44f 67f
10:48am 14 20 mph 1022mb 44f 67f
10:42am 14 18 mph 1022.1mb 44f 66f
10:36am 11 16 mph 1022.1mb 44f 66f
10:30am 14 20 mph 1022.2mb 44f 66f
10:24am 13 16 mph 1022.2mb 44f 65f
10:18am 11 15 mph 1022.3mb 44f 65f
10:12am 16 23 mph 1022.3mb 44f 65f
10:06am 14 20 mph 1022.3mb 44f 65f
10:00am 13 18 mph 1022.3mb 44f 64f
9:54am 15 25 mph 1022.3mb 44f 64f
9:48am 15 20 mph 1022.3mb 44f 63f
9:42am 16 22 mph 1022.4mb 44f 63f
9:36am 16 21 mph 1022.4mb 44f 63f
9:30am 14 21 mph 1022.4mb 44f 63f
9:24am 17 25 mph 1022.3mb 44f 63f
9:18am 16 22 mph 1022.3mb 44f 63f
9:12am 18 25 mph 1022.2mb 44f 62f
9:06am 16 24 mph 1022.2mb 44f 62f
9:00am 18 26 mph 1022.3mb 44f 62f
8:54am 14 21 mph 1022.4mb 44f 62f
8:48am 10 18 mph 1022.3mb 44f 61f
8:42am 10 22 mph 1022.2mb 44f 61f
8:36am 10 17 mph 1022.2mb 44f 61f
8:30am 7 16 mph 1022.3mb 44f 61f
8:24am 8 17 mph 1022.2mb 44f 61f
8:18am 14 21 mph 1022.2mb 44f 61f
8:12am 13 16 mph 1022.2mb 44f 60f
8:06am 13 18 mph 1022.2mb 44f 60f
8:00am 14 17 mph 1022.2mb 44f 60f
7:54am 13 17 mph 1022.2mb 44f 60f
7:48am 15 23 mph 1022.2mb 44f 60f
7:42am 16 22 mph 1022.1mb 44f 60f
7:36am 14 22 mph 1022.1mb 44f 60f
7:30am 14 21 mph 1022.1mb 44f 60f
7:24am 11 16 mph 1022.1mb 44f 60f
7:18am 11 15 mph 1022.1mb 44f 59f
7:12am 13 18 mph 1022mb 44f 59f
7:06am 14 21 mph 1022mb 44f 60f
7:00am 13 17 mph 1021.7mb 44f 59f
6:54am 10 18 mph 1021.6mb 44f 59f
6:48am 13 18 mph 1021.6mb 44f 60f
6:42am 13 17 mph 1021.5mb 44f 60f
6:36am 13 18 mph 1021.5mb 44f 60f
6:30am 14 20 mph 1021.6mb 44f 60f
6:24am 14 20 mph 1021.6mb 44f 60f
6:18am 14 20 mph 1021.6mb 44f 60f
6:12am 11 18 mph 1021.5mb 44f 60f
6:06am 11 17 mph 1021.3mb 44f 60f
6:00am 13 20 mph 1021.2mb 44f 60f
5:54am 11 18 mph 1021mb 44f 60f
5:48am 13 18 mph 1020.9mb 44f 60f
5:42am 13 21 mph 1020.8mb 44f 60f
5:36am 14 21 mph 1020.9mb 44f 61f
5:30am 11 16 mph 1020.9mb 44f 60f
5:24am 13 22 mph 1020.9mb 44f 61f
5:18am 11 20 mph 1020.9mb 44f 61f
5:12am 13 17 mph 1020.9mb 44f 61f
5:06am 14 18 mph 1020.9mb 44f 61f
5:00am 14 18 mph 1020.8mb 44f 61f
4:54am 9 14 mph 1020.9mb 44f 61f
4:48am 11 17 mph 1020.8mb 44f 61f
4:42am 13 21 mph 1020.8mb 44f 61f
4:36am 13 20 mph 1020.8mb 44f 61f
4:30am 11 16 mph 1020.9mb 44f 61f
4:24am 13 17 mph 1020.9mb 44f 62f
4:18am 13 21 mph 1020.8mb 44f 62f
4:12am 14 18 mph 1020.7mb 44f 62f
4:06am 14 21 mph 1020.7mb 44f 62f
4:00am 15 20 mph 1020.7mb 44f 62f
3:54am 16 28 mph 1020.7mb 44f 62f
3:48am 14 24 mph 1020.8mb 44f 62f
3:42am 14 25 mph 1020.9mb 44f 62f
3:36am 15 20 mph 1021mb 44f 62f
3:30am 11 22 mph 1021mb 44f 62f
3:24am 14 21 mph 1021mb 44f 62f
3:18am 13 18 mph 1021mb 44f 61f
3:12am 13 25 mph 1021mb 44f 62f
3:06am 13 20 mph 1021.1mb 44f 61f
3:00am 13 21 mph 1021.3mb 44f 61f
2:54am 15 21 mph 1021.3mb 44f 61f
2:48am 14 20 mph 1021.5mb 44f -
2:42am 11 17 mph 1021.5mb 44f -
2:36am 13 20 mph 1021.5mb 44f -
2:30am 10 16 mph 1021.5mb 44f 62f
2:24am 14 26 mph 1021.6mb 44f 62f
2:18am 11 17 mph 1021.6mb 44f 62f
2:12am 11 17 mph 1021.6mb 44f 62f
2:06am 14 22 mph 1021.6mb 44f 62f
2:00am 13 22 mph 1021.7mb 44f 62f
1:54am 14 23 mph 1021.8mb 44f 62f
1:48am 11 18 mph 1021.9mb 44f 62f
1:42am 11 18 mph 1022mb 44f 62f
1:36am 13 22 mph 1022.1mb 43f 62f
1:30am 15 29 mph 1022mb 43f 62f
1:24am 10 16 mph 1022.1mb 43f 62f
1:18am 10 15 mph 1022.1mb 43f 62f
1:12am 15 22 mph 1022.2mb 43f 62f
1:06am 16 24 mph 1022.3mb 43f 62f
1:00am 16 24 mph 1022.3mb 43f 62f
12:54am 14 21 mph 1022.4mb 43f 62f
12:48am 13 20 mph 1022.4mb 43f 62f
12:42am 10 15 mph 1022.3mb 43f 62f
12:36am 13 17 mph 1022.3mb 43f 62f
12:30am 10 16 mph 1022.3mb 43f 61f
12:24am 11 16 mph 1022.3mb 43f 61f
12:18am 14 22 mph 1022.3mb 43f 61f
12:12am 14 21 mph 1022.2mb 43f 61f
12:06am 13 21 mph 1022.2mb 43f 60f
12:00am 11 15 mph 1022.2mb 43f 60f
Fri 03/24 11:54pm 13 21 mph 1022.2mb 43f 61f
11:48pm 14 21 mph - - -
11:42pm 13 18 mph 1022.2mb 43f 61f
11:36pm 13 21 mph 1022.2mb 43f 60f
11:30pm 13 20 mph 1022.1mb 43f 60f
11:24pm 14 20 mph 1022.1mb 43f 60f
11:18pm 14 23 mph 1022.1mb 43f 60f
11:12pm 14 21 mph 1022.1mb 43f 60f
11:06pm 16 24 mph 1022.1mb 43f 61f
11:00pm 14 25 mph 1022.1mb 43f 61f
10:54pm 16 29 mph 1022mb 43f 61f
10:48pm 14 26 mph 1022.1mb 43f 60f
10:42pm 15 23 mph 1022.1mb 43f 60f
10:36pm 14 22 mph 1022.1mb 43f 60f
10:30pm 14 21 mph 1022.2mb 43f 60f
10:24pm 15 22 mph 1022.2mb 43f 59f
10:18pm 13 18 mph 1022.2mb 43f 59f
10:12pm 13 20 mph 1022.3mb 43f 59f
10:06pm 13 16 mph 1022.2mb 43f 58f
10:00pm 11 20 mph 1022.3mb 43f 58f
9:54pm 11 18 mph 1022.2mb 43f 58f
9:48pm 11 18 mph 1022.3mb 43f 58f
9:42pm 13 20 mph 1022.4mb 43f 58f
9:36pm 13 18 mph 1022.4mb 43f 58f
9:30pm 13 21 mph 1022.4mb 43f 58f
9:24pm 13 20 mph 1022.5mb 43f 58f
9:18pm 10 15 mph - - -
9:12pm 10 15 mph 1022.4mb 43f 57f
9:06pm 11 18 mph 1022.3mb 43f 57f
9:00pm 11 17 mph 1022.3mb 43f 57f
8:54pm 9 14 mph 1022.2mb 43f 57f
8:48pm 10 17 mph 1022.2mb 43f 57f
8:42pm 9 14 mph 1022.1mb 43f 56f
8:36pm 9 14 mph 1022.1mb 43f 56f
8:30pm 9 14 mph 1022mb 43f 56f
8:24pm 10 20 mph 1021.9mb 43f 56f
8:18pm 9 15 mph - - -
8:12pm 8 15 mph 1021.9mb 43f 56f
8:06pm 10 18 mph 1021.8mb 43f 56f
8:00pm 10 16 mph 1021.9mb 43f 56f
7:54pm 9 14 mph 1021.9mb 43f 56f
7:48pm 8 14 mph 1021.9mb 43f 55f
7:42pm 8 11 mph 1021.9mb 43f 55f
7:36pm 9 13 mph 1022mb 43f 55f
7:30pm 7 10 mph 1022mb 43f 56f
7:24pm 8 13 mph 1022.1mb 43f 56f
7:18pm 7 11 mph - - -
7:12pm 7 13 mph 1022.2mb 43f 56f
7:06pm 8 11 mph 1022.3mb 43f 56f
7:00pm 7 10 mph 1022.4mb 43f 56f
6:54pm 7 13 mph 1022.5mb 43f 56f
6:48pm 8 13 mph 1022.5mb 43f 56f
6:42pm 8 14 mph 1022.6mb 43f 56f
6:36pm 8 13 mph 1022.6mb 43f 57f
6:30pm 8 11 mph 1022.6mb 43f 57f
6:24pm 7 13 mph 1022.7mb 43f 58f
6:18pm 7 11 mph 1022.7mb 43f 59f
6:12pm 9 16 mph 1022.8mb 43f 61f
6:06pm 8 15 mph 1022.7mb 43f 61f
6:00pm 9 22 mph 1022.7mb 43f 61f
5:54pm 11 18 mph 1022.9mb 43f 61f
5:48pm 14 20 mph - - -
5:42pm 13 20 mph 1023.1mb 43f 61f
5:36pm 16 24 mph 1023.2mb 42f 60f
5:30pm 14 23 mph 1023.2mb 42f 60f
5:24pm 11 22 mph 1023.3mb 42f 60f
5:18pm 9 15 mph 1023.4mb 42f 61f
5:12pm 16 24 mph 1023.5mb 42f 60f
5:06pm 13 17 mph 1023.5mb 42f 61f
5:00pm 11 18 mph 1023.6mb 42f 61f
4:54pm 16 24 mph 1023.8mb 42f 61f
4:48pm 16 24 mph 1023.9mb 42f 61f
4:42pm 16 25 mph 1024.2mb 42f 61f
4:36pm 17 24 mph 1024.3mb 42f 61f
4:30pm 20 28 mph 1024.4mb 42f 61f
4:24pm 15 25 mph 1024.4mb 42f 62f
4:18pm 11 20 mph 1024.5mb 42f 62f
4:12pm 13 22 mph 1024.7mb 42f 62f
4:06pm 16 25 mph 1024.7mb 42f 62f
4:00pm 9 21 mph 1024.9mb 42f 62f
3:54pm 18 24 mph 1025mb 42f 62f
3:48pm 15 24 mph 1025.1mb 42f 62f
3:42pm 17 26 mph 1025.2mb 42f 62f
3:36pm 14 23 mph 1025.2mb 42f 62f
3:30pm 13 21 mph 1025.2mb 42f 62f
3:24pm 10 20 mph 1025.3mb 42f 62f
3:18pm 11 17 mph 1025.3mb 42f 62f
3:12pm 16 22 mph 1025.3mb 42f 62f
3:06pm 11 18 mph 1025.4mb 42f 62f
3:00pm 14 24 mph 1025.4mb 42f 61f
2:54pm 10 22 mph 1025.6mb 42f 61f
2:48pm 8 18 mph 1025.8mb 42f 61f
2:42pm 11 22 mph 1025.9mb 42f 60f
2:36pm 17 24 mph 1026.1mb 42f 60f
2:30pm 18 30 mph 1026.4mb 42f 60f
2:24pm 16 32 mph 1026.5mb 42f 60f
2:18pm 20 29 mph 1026.8mb 42f 60f
2:12pm 18 25 mph 1026.8mb 42f 59f
2:06pm 15 23 mph 1026.9mb 42f 59f
2:00pm 15 24 mph 1027.2mb 42f 59f
1:54pm 13 18 mph 1027.5mb 42f 59f
1:48pm 13 17 mph 1027.7mb 42f 58f
1:42pm 11 17 mph 1027.9mb 42f 58f
1:36pm 10 17 mph 1028mb 42f 57f
1:30pm 10 18 mph 1028.1mb 42f 57f
1:24pm 14 20 mph 1028.2mb 42f 57f
1:18pm 9 17 mph 1028.2mb 42f 57f
1:12pm 15 23 mph 1028.4mb 42f 57f
1:06pm 8 14 mph 1028.6mb 42f 56f
1:00pm 14 20 mph 1028.9mb 42f 55f
12:54pm 14 22 mph 1029.2mb 42f 55f
12:48pm 16 23 mph 1029.2mb 42f 54f
12:42pm 10 17 mph 1029.2mb 42f 54f
12:36pm 14 21 mph 1029.5mb 42f 53f
12:30pm 11 18 mph 1029.6mb 42f 53f
12:24pm 11 16 mph 1029.6mb 42f 53f
12:18pm 14 22 mph 1029.9mb 42f 52f
12:12pm 9 16 mph 1030.2mb 42f 52f
12:06pm 9 14 mph 1030.3mb 42f 52f
12:00pm 11 16 mph 1030.5mb 42f 51f
11:54am 10 18 mph 1030.8mb 42f 51f
11:48am 8 16 mph 1031.1mb 42f 51f
11:42am 9 17 mph 1031.2mb 42f 51f
11:36am 9 15 mph 1031.4mb 42f 50f
11:30am 11 17 mph 1031.6mb 42f 50f
11:24am 7 13 mph 1031.8mb 42f 50f
11:18am 8 15 mph 1031.9mb 42f 50f
11:12am 8 14 mph 1031.9mb 42f 50f
11:06am 7 14 mph 1031.9mb 42f 50f
11:00am 11 17 mph 1032mb 42f 49f
10:54am 9 15 mph 1032.1mb 42f 49f
10:48am 10 17 mph 1032.1mb 42f 48f
10:42am 9 15 mph 1032.1mb 42f 47f
10:36am 8 11 mph 1032.1mb 42f 47f
10:30am 7 16 mph 1032mb 42f 47f
10:24am 10 17 mph 1032.1mb 42f 46f
10:18am 9 15 mph 1032.2mb 42f 46f
10:12am 8 15 mph 1032.2mb 42f 46f
10:06am 10 18 mph 1032.2mb 42f 45f
10:00am 9 15 mph 1032.2mb 42f 45f
9:54am 8 13 mph 1032.3mb 42f 45f
9:48am 7 14 mph 1032.4mb 42f 45f
9:42am 9 15 mph 1032.4mb 42f 44f
9:36am 8 14 mph 1032.5mb 42f 44f
9:30am 7 11 mph 1032.5mb 42f 44f
9:24am 8 16 mph 1032.5mb 42f 43f
9:18am 9 11 mph 1032.6mb 42f 42f
9:12am 10 17 mph 1032.7mb 42f 42f
9:06am 10 16 mph 1032.7mb 42f 42f
9:00am 10 14 mph 1032.8mb 42f 42f
8:54am 8 14 mph 1032.8mb 42f 42f
8:48am 8 13 mph 1033mb 42f 42f
8:42am 8 11 mph 1033mb 42f 42f
8:36am 10 20 mph 1033mb 42f 42f
8:30am 8 14 mph 1032.8mb 42f 42f
8:24am 8 14 mph 1032.6mb 42f 41f
8:18am 8 13 mph 1032.8mb 42f 41f
8:12am 8 11 mph 1032.5mb 42f 40f
8:06am 6 10 mph 1032.6mb 42f 39f
8:00am 10 15 mph 1032.7mb 42f 39f
7:54am 9 15 mph 1032.8mb 42f 38f
7:48am 8 14 mph 1032.9mb 42f 38f
7:42am 7 11 mph 1032.9mb 42f 38f
7:36am 7 10 mph 1033mb 42f 38f
7:30am 7 10 mph 1033.1mb 42f 38f
7:24am 6 10 mph 1033.3mb 42f 37f
7:18am 7 11 mph 1033.3mb 42f 37f
7:12am 6 9 mph 1033.2mb 42f 37f
7:06am 7 10 mph 1033.2mb 42f 37f
7:00am 8 11 mph 1033.2mb 42f 37f
6:54am 6 8 mph 1033.1mb 42f 37f
6:48am 6 10 mph 1033.1mb 42f 37f
6:42am 6 10 mph 1033.1mb 42f 36f
6:36am 6 10 mph 1033.1mb 42f 36f
6:30am 6 8 mph 1033mb 42f 36f
6:24am 6 9 mph 1033.2mb 42f 36f
6:18am 6 9 mph 1033.2mb 42f 36f
6:12am 7 9 mph 1033.4mb 42f 36f
6:06am 6 8 mph 1033.5mb 42f 36f
6:00am 6 9 mph 1033.4mb 42f 36f
5:54am 7 10 mph 1033.4mb 42f 36f
5:48am 5 7 mph 1033.6mb 42f 36f
5:42am 6 9 mph 1033.5mb 41f 36f
5:36am 6 10 mph 1033.5mb 41f 36f
5:30am 6 9 mph 1033.4mb 41f 36f
5:24am 5 8 mph 1033.4mb 41f 36f
5:18am 7 10 mph 1033.4mb 41f 36f
5:12am 6 9 mph 1033.4mb 41f 36f
5:06am 6 10 mph 1033.4mb 41f 36f
5:00am 7 11 mph 1033.3mb 41f 36f
4:54am 7 13 mph 1033.2mb 41f 36f
4:48am 7 13 mph 1033.1mb 41f 36f
4:42am 7 10 mph 1033mb 42f 36f
4:36am 8 11 mph 1033.1mb 42f 36f
4:30am 7 10 mph 1033.3mb 42f 36f
4:24am 7 11 mph 1033.2mb 42f 36f
4:18am 6 10 mph 1033.1mb 42f 36f
4:12am 6 8 mph 1033.1mb 42f 36f
4:06am 6 9 mph 1033mb 42f 36f
4:00am 7 11 mph 1033.1mb 42f 36f
3:54am 7 14 mph 1033.2mb 42f 35f
3:48am 7 10 mph 1033.4mb 41f 35f
3:42am 6 9 mph 1033.6mb 41f 35f
3:36am 6 9 mph 1033.7mb 42f 34f
3:30am 6 10 mph 1033.9mb 42f 34f
3:24am 7 9 mph 1034.1mb 42f 34f
3:18am 5 7 mph 1034.3mb 42f 34f
3:12am 6 7 mph 1034.4mb 42f 34f
3:06am 5 8 mph 1034.5mb 42f 33f
3:00am 6 7 mph 1034.5mb 42f 33f
2:54am 5 7 mph 1034.6mb 42f 33f
2:48am 6 8 mph 1034.8mb 42f 33f
2:42am 5 7 mph 1034.9mb 42f 33f
2:36am 5 8 mph 1035mb 42f 33f
2:30am 5 6 mph 1035.2mb 42f 33f
2:24am 3 5 mph 1035.2mb 42f 33f
2:18am 3 6 mph 1035.2mb 42f 33f
2:12am 5 7 mph 1035.1mb 42f 33f
2:06am 5 6 mph 1035.1mb 42f 33f
2:00am 5 8 mph 1034.9mb 42f 34f
1:54am 5 7 mph 1034.7mb 42f 34f
1:48am 6 8 mph 1034.5mb 42f 34f
1:42am 6 9 mph 1034.5mb 42f -
1:36am 6 8 mph 1034.6mb 42f -
1:30am 7 8 mph 1034.7mb 42f 34f
1:24am 5 9 mph 1034.8mb 42f 34f
1:18am 6 9 mph 1034.8mb 42f 34f
1:12am 6 8 mph 1034.8mb 42f 34f
1:06am 6 9 mph 1034.7mb 42f 34f
1:00am 7 10 mph 1034.7mb 42f 34f
12:54am 6 9 mph 1034.9mb 42f 34f
12:48am 6 10 mph 1035mb 42f 34f
12:42am 6 9 mph 1035.1mb 42f 35f
12:36am 7 10 mph 1035.1mb 42f 35f
12:30am 7 9 mph 1035.1mb 42f 35f
12:24am 6 9 mph 1035.3mb 42f 35f
12:18am 7 9 mph 1035.4mb 42f 35f
12:12am 7 9 mph 1035.5mb 42f 35f
12:06am 6 8 mph 1035.5mb 42f 35f
12:00am 6 8 mph 1035.5mb 42f 35f
Thu 03/23 11:54pm 6 9 mph 1035.5mb 42f 34f
11:48pm 7 10 mph 1035.4mb 42f 34f
11:42pm 7 9 mph 1035.5mb 42f 34f
11:36pm 8 10 mph 1035.5mb 42f 34f
11:30pm 6 8 mph 1035.8mb 42f 34f
11:24pm 5 8 mph 1036mb 43f 34f
11:18pm 6 8 mph 1036.4mb 43f 34f
11:12pm 6 9 mph 1036.3mb 43f 35f
11:06pm 6 8 mph 1036.2mb 43f 35f
11:00pm 5 7 mph 1036.4mb 43f 35f
10:54pm 5 7 mph 1036.5mb 43f 35f
10:48pm 5 6 mph 1036.4mb 43f 35f
10:42pm 3 6 mph 1036.2mb 43f 35f
10:36pm 3 6 mph 1036mb 43f 35f
10:30pm 5 7 mph 1035.8mb 43f 35f
10:24pm 6 8 mph 1035.6mb 43f 35f
10:18pm 6 8 mph - - -
10:12pm 7 10 mph 1035.5mb 43f 35f
10:06pm 6 9 mph 1035.6mb 43f 35f
10:00pm 7 9 mph 1035.6mb 43f 35f
9:54pm 7 9 mph 1035.4mb 43f 35f
9:48pm 5 7 mph 1035.4mb 43f 35f
9:42pm 7 9 mph 1035.4mb 43f 35f
9:36pm 7 9 mph 1035.3mb 43f 35f
9:30pm 6 8 mph 1035.4mb 43f 35f
9:24pm 7 10 mph 1035.4mb 43f 35f
9:18pm 7 9 mph 1035.3mb 43f 35f
9:12pm 7 10 mph 1035.4mb 43f 35f
9:06pm 7 9 mph 1035.3mb 43f 35f
9:00pm 7 9 mph 1035.1mb 43f 35f
8:54pm 5 8 mph 1035mb 43f 35f
8:48pm 6 9 mph 1035mb 43f 35f
8:42pm 6 8 mph 1035.1mb 43f 35f
8:36pm 5 6 mph 1035mb 43f 35f
8:30pm 5 6 mph 1035mb 43f 35f
8:24pm 5 8 mph 1034.9mb 43f 35f
8:18pm 6 7 mph - - -
8:12pm 6 8 mph 1034.9mb 43f 35f
8:06pm 7 9 mph 1034.9mb 43f 35f
8:00pm 7 9 mph 1034.9mb 43f 35f
7:54pm 6 7 mph 1034.9mb 43f 35f
7:48pm 5 8 mph 1034.9mb 43f 35f
7:42pm 5 7 mph 1034.9mb 43f 36f
7:36pm 5 7 mph 1034.9mb 43f 36f
7:30pm 6 8 mph 1034.8mb 42f 36f
7:24pm 6 11 mph 1034.7mb 43f 36f
7:18pm 8 11 mph 1034.7mb 43f 36f
7:12pm 8 11 mph 1034.7mb 43f 36f
7:06pm 8 10 mph 1034.8mb 43f 37f
7:00pm 8 10 mph 1034.9mb 43f 37f
6:54pm 9 11 mph 1035mb 43f 37f
6:48pm 9 13 mph 1034.9mb 43f 37f
6:42pm 10 14 mph 1034.8mb 43f 38f
6:36pm 8 10 mph 1034.9mb 44f 38f
6:30pm 9 14 mph 1034.8mb 44f 38f
6:24pm 7 9 mph 1034.9mb 44f 38f
6:18pm 8 11 mph 1034.8mb 44f 39f
6:12pm 8 13 mph 1034.7mb 44f 39f
6:06pm 9 13 mph 1034.6mb 44f 39f
6:00pm 8 10 mph 1034.6mb 44f 39f
5:54pm 10 13 mph 1034.6mb 44f 38f
5:48pm 8 13 mph 1034.5mb 44f 39f
5:42pm 9 13 mph 1034.5mb 44f 39f
5:36pm 8 10 mph 1034.5mb 44f 39f
5:30pm 7 10 mph 1034.5mb 44f 39f
5:24pm 6 8 mph 1034.5mb 44f 39f
5:18pm 3 5 mph 1034.5mb 44f 39f
5:12pm 3 5 mph 1034.6mb 44f 39f
5:06pm 6 7 mph 1034.7mb 44f 39f
5:00pm 6 7 mph 1034.7mb 44f 38f
4:54pm 6
mph
1034.9mb 43f 38f
4:48pm 6 7 mph 1034.9mb 43f 38f
4:42pm 7
mph
1035mb 43f 38f
4:36pm 6 8 mph 1035mb 43f 38f
4:30pm 5 7 mph 1035mb 43f 38f
4:24pm 2 8 mph 1035.1mb 43f 37f
4:18pm 5 6 mph 1035.2mb 44f 37f
4:12pm 3 5 mph 1035.3mb 43f 37f
4:06pm 5 6 mph 1035.3mb 42f 37f
4:00pm 6 8 mph 1035.4mb 42f 37f
3:54pm 3 8 mph 1035.3mb 42f 37f
3:48pm 5 8 mph 1035.4mb 43f 37f
3:42pm 3 9 mph 1035.5mb 43f 36f
3:36pm 5 9 mph 1035.6mb 43f 36f
3:30pm 6 7 mph 1035.6mb 43f 36f
3:24pm  -  1 mph 1035.7mb 43f 36f
3:18pm 1 7 mph 1035.8mb 43f 35f
3:12pm 1 7 mph 1035.9mb 43f 35f
3:06pm 2 6 mph 1036mb 43f 35f
3:00pm 1 5 mph 1036mb 42f 35f
2:54pm 5 8 mph 1036.1mb 42f 35f
2:48pm 6 8 mph 1036.2mb 42f 34f
2:42pm 5 8 mph 1036.3mb 42f 34f
2:36pm 6 7 mph 1036.4mb 42f 34f
2:30pm 6 7 mph 1036.4mb 42f 34f
2:24pm 6 7 mph 1036.5mb 42f 33f
2:18pm 6 8 mph 1036.5mb 42f 33f
2:12pm 6 7 mph 1036.5mb 42f 33f
2:06pm 6 9 mph 1036.6mb 42f 33f
2:00pm 7 8 mph 1036.7mb 42f 33f
1:54pm 7 9 mph 1036.8mb 42f 32f
1:48pm 7 9 mph 1036.9mb 42f 32f
1:42pm 7 9 mph 1037.1mb 42f 32f
1:36pm 8 10 mph 1037.1mb 42f 32f
1:30pm 9 10 mph 1037.1mb 42f 31f
1:24pm 7 10 mph 1037.2mb 42f 31f
1:18pm 6 8 mph 1037.3mb 42f 31f
1:12pm 7 8 mph 1037.4mb 42f 31f
1:06pm 6 8 mph 1037.5mb 41f 31f
1:00pm 7 8 mph 1037.7mb 41f 31f
12:54pm 6 9 mph 1037.7mb 41f 31f
12:48pm 3 8 mph 1037.8mb 41f 30f
12:42pm 2 7 mph 1037.8mb 41f 30f
12:36pm 1 5 mph 1037.9mb 42f 30f
12:30pm 6 8 mph 1038mb 41f 30f
12:24pm 3 8 mph 1038mb 41f 30f
12:18pm 6 8 mph 1038mb 42f 30f
12:12pm 9 11 mph 1038.1mb 42f 30f
12:06pm 6 7 mph 1038.2mb 42f 30f
12:00pm 7 10 mph 1038.3mb 41f 30f
11:54am 1 6 mph 1038.4mb 42f 31f
11:48am 7 8 mph 1038.4mb 42f 30f
11:42am 6 7 mph 1038.5mb 42f 29f
11:36am 5 8 mph 1038.6mb 42f 30f
11:30am 6 9 mph 1038.6mb 42f 30f
11:24am 6 9 mph 1038.8mb 42f 30f
11:18am 7 9 mph 1038.7mb 42f 29f
11:12am 8 11 mph 1038.7mb 42f 30f
11:06am 6 9 mph 1038.7mb 42f 29f
11:00am 8 11 mph 1038.7mb 42f 29f
10:54am 3 9 mph 1038.6mb 41f 29f
10:48am 7 11 mph 1038.6mb 41f 29f
10:42am 7 9 mph 1038.5mb 41f 29f
10:36am 6 11 mph 1038.4mb 41f 29f
10:30am 9 11 mph 1038.4mb 41f 29f
10:24am 6 14 mph 1038.4mb 41f 29f
10:18am 3 9 mph 1038.4mb 41f 29f
10:12am 3 11 mph 1038.4mb 41f 29f
10:06am 8 13 mph 1038.3mb 41f 29f
10:00am 11 16 mph 1038.2mb 41f 29f
9:54am 11 16 mph 1038.1mb 41f 29f
9:48am 14 16 mph 1038.1mb 41f 29f
9:42am 15 18 mph 1038.1mb 41f 29f
9:36am 10 14 mph 1038mb 40f 29f
9:30am 14 18 mph 1037.9mb 40f 29f
9:24am 14 18 mph 1037.9mb 40f 29f
9:18am 13 15 mph 1037.8mb 40f 29f
9:12am 13 16 mph 1037.8mb 40f 29f
9:06am 16 20 mph 1037.8mb 40f 28f
9:00am 11 17 mph 1037.8mb 40f 29f
8:54am 16 21 mph 1037.8mb 40f 29f
8:48am 18 21 mph 1037.7mb 40f 29f
8:42am 14 18 mph 1037.5mb 40f 29f
8:36am 15 21 mph 1037.5mb 40f 29f
8:30am 18 22 mph 1037.4mb 40f 29f
8:24am 7 22 mph 1037.5mb 40f 30f
8:18am 18 21 mph 1037.4mb 40f 29f
8:12am 16 21 mph 1037.3mb 40f 29f
8:06am 17 21 mph 1037.3mb 40f 29f
8:00am 16 21 mph 1037.3mb 40f 28f
7:54am 18 24 mph 1037.1mb 41f 28f
7:48am 18 22 mph 1036.9mb 41f 29f
7:42am 18 22 mph 1036.8mb 41f 29f
7:36am 16 21 mph 1036.8mb 41f 29f
7:30am 16 20 mph 1036.8mb 41f 29f
7:24am 16 21 mph 1036.7mb 41f 28f
7:18am 20 25 mph - - -
7:12am 18 25 mph 1036.6mb 40f 29f
7:06am 20 23 mph 1036.5mb 40f 28f
7:00am 17 21 mph 1036.5mb 40f 28f
6:54am 16 20 mph 1036.3mb 40f 28f
6:48am 16 20 mph 1036.2mb 40f 29f
6:42am 17 21 mph 1036mb 40f 29f
6:36am 17 24 mph 1036mb 40f 28f
6:30am 17 23 mph 1036mb 40f 28f
6:24am 16 21 mph 1035.8mb 40f 29f
6:18am 17 23 mph 1035.7mb 40f 29f
6:12am 20 25 mph 1035.5mb 40f 29f
6:06am 21 25 mph 1035.5mb 40f 29f
6:00am 21 24 mph 1035.4mb 40f 29f
5:54am 18 24 mph 1035.3mb 40f 29f
5:48am 22 26 mph 1035.2mb 40f 29f
5:42am 20 24 mph 1035.1mb 40f 29f
5:36am 18 24 mph 1035.1mb 40f 29f
5:30am 22 26 mph 1034.9mb 40f 29f
5:24am 20 24 mph 1034.8mb 40f 29f
5:18am 22 26 mph 1034.6mb 40f 30f
5:12am 22 25 mph 1034.5mb 40f 29f
5:06am 20 25 mph 1034.4mb 40f 29f
5:00am 21 26 mph 1034.4mb 40f 29f
4:54am 20 24 mph 1034.3mb 40f 30f
4:48am 22 25 mph 1034.1mb 40f 30f
4:42am 22 26 mph 1034.1mb 40f 30f
4:36am 23 30 mph 1034mb 40f 30f
4:30am 23 28 mph 1034mb 40f 30f
4:24am 23 29 mph 1033.9mb 41f 31f
4:18am 23 28 mph 1033.8mb 41f 30f
4:12am 25 30 mph 1033.6mb 41f 31f
4:06am 24 29 mph 1033.6mb 41f 31f
4:00am 24 31 mph 1033.6mb 41f 31f
3:54am 28 33 mph 1033.6mb 41f 31f
3:48am 26 33 mph 1033.5mb 41f 31f
3:42am 25 32 mph 1033.4mb 41f 31f
3:36am 25 30 mph 1033.2mb 41f 32f
3:30am 26 31 mph 1033.3mb 41f 32f
3:24am 25 32 mph 1033.2mb 41f 32f
3:18am 26 32 mph 1033.2mb 41f 32f
3:12am 26 30 mph 1033.1mb 41f 32f
3:06am 23 30 mph 1033.1mb 41f 32f
3:00am 25 31 mph 1033mb 41f 32f
2:54am 26 34 mph 1033mb 42f 32f
2:48am 25 29 mph 1033mb 42f -
2:42am 25 31 mph 1033mb 42f -
2:36am 24 29 mph 1032.9mb 42f -
2:30am 22 28 mph 1032.9mb 42f 33f
2:24am 23 29 mph 1032.8mb 42f 33f
2:18am 23 29 mph 1032.8mb 42f 33f
2:12am 24 30 mph 1032.8mb 42f 33f
2:06am 25 30 mph 1032.8mb 42f 33f
2:00am 24 29 mph 1032.8mb 42f 33f
1:54am 24 29 mph 1032.8mb 42f 33f
1:48am 23 28 mph 1032.8mb 42f -
1:42am 26 29 mph 1032.7mb 42f -
1:36am 25 29 mph 1032.7mb 42f -
1:30am 24 28 mph 1032.7mb 42f 33f
1:24am 22 25 mph 1032.6mb 42f 34f
1:18am 23 29 mph 1032.5mb 42f 34f
1:12am 24 29 mph 1032.5mb 42f 34f
1:06am 26 31 mph 1032.5mb 42f 34f
1:00am 24 29 mph 1032.5mb 42f 34f
12:54am 23 28 mph 1032.4mb 42f 34f
12:48am 22 25 mph 1032.4mb 42f 34f
12:42am 23 28 mph 1032.3mb 42f 34f
12:36am 22 26 mph 1032.4mb 42f 34f
12:30am 23 28 mph 1032.4mb 42f 34f
12:24am 24 29 mph 1032.3mb 42f 34f
12:18am 24 29 mph 1032.1mb 43f 34f
12:12am 25 30 mph 1032.1mb 42f 34f
12:06am 22 26 mph 1032mb 42f 35f
12:00am 23 29 mph 1032.1mb 42f 35f
Wed 03/22 11:54pm 25 29 mph 1032mb 43f 35f
11:48pm 23 29 mph 1031.9mb 43f 35f
11:42pm 23 25 mph 1031.8mb 43f 35f
11:36pm 25 29 mph 1031.7mb 43f 35f
11:30pm 24 29 mph 1031.6mb 43f 36f
11:24pm 26 31 mph 1031.5mb 43f 36f
11:18pm 25 30 mph 1031.4mb 43f 36f
11:12pm 26 32 mph 1031.4mb 43f 36f
11:06pm 29 32 mph 1031.4mb 43f 36f
11:00pm 26 32 mph 1031.3mb 43f 36f
10:54pm 25 31 mph 1031.3mb 43f 36f
10:48pm 25 30 mph 1031.2mb 43f 36f
10:42pm 24 32 mph 1031.1mb 44f 37f
10:36pm 26 33 mph 1031mb 44f 37f
10:30pm 24 29 mph 1030.9mb 44f 36f
10:24pm 25 30 mph 1030.8mb 44f 36f
10:18pm 24 29 mph 1030.7mb 44f 37f
10:12pm 23 26 mph 1030.7mb 44f 37f
10:06pm 23 26 mph 1030.6mb 44f 37f
10:00pm 22 26 mph 1030.5mb 44f 37f
9:54pm 22 26 mph 1030.4mb 44f 37f
9:48pm 23 26 mph 1030.2mb - -
9:42pm 22 26 mph 1030.1mb 44f 37f
9:36pm 24 30 mph 1030mb 44f 37f
9:30pm 23 26 mph 1029.9mb 44f 37f
9:24pm 23 28 mph 1029.7mb 44f 38f
9:18pm 23 29 mph 1029.7mb 44f 38f
9:12pm 24 30 mph 1029.5mb 44f 38f
9:06pm 25 31 mph 1029.4mb 44f 38f
9:00pm 28 31 mph 1029.4mb 44f 38f
8:54pm 28 32 mph 1029.4mb 44f 38f
8:48pm 29 36 mph 1029.3mb - -
8:42pm 29 38 mph 1029.2mb 44f 38f
8:36pm 28 34 mph 1029.1mb 44f 39f
8:30pm 29 36 mph 1029mb 44f 39f
8:24pm 30 34 mph 1028.8mb 44f 39f
8:18pm 30 36 mph 1028.7mb 44f 39f
8:12pm 28 32 mph 1028.5mb 44f 39f
8:06pm 26 32 mph 1028.4mb 44f 39f
8:00pm 26 32 mph 1028.3mb 44f 39f
7:54pm 29 34 mph 1028.2mb 44f 39f
7:48pm 26 33 mph 1027.9mb - -
7:42pm 26 32 mph 1027.8mb 44f 39f
7:36pm 28 32 mph 1027.8mb 44f 39f
7:30pm 29 34 mph 1027.6mb 45f 39f
7:24pm 8 23 mph 1027.9mb 45f 40f
7:18pm 30 36 mph 1027.6mb 45f 39f
7:12pm 28 33 mph 1027.5mb 45f 39f
7:06pm 28 34 mph 1027.4mb 45f 39f
7:00pm 30 38 mph 1027.2mb 45f 39f
6:54pm 29 36 mph 1027.1mb 45f 39f
6:48pm 29 36 mph 1026.9mb - -
6:42pm 30 36 mph 1026.7mb 45f 39f
6:36pm 26 31 mph 1026.6mb 45f 40f
6:30pm 29 34 mph 1026.5mb 45f 39f
6:24pm 25 31 mph 1026.3mb 45f 40f
6:18pm 26 33 mph 1026.3mb 45f 39f
6:12pm 29 37 mph 1026.2mb 45f 39f
6:06pm 28 34 mph 1026.1mb 45f 40f
6:00pm 29 34 mph 1026mb 45f 39f
5:54pm 30 37 mph 1025.8mb 45f 40f
5:48pm 29 36 mph - - -
5:42pm 29 36 mph 1025.6mb 45f 40f
5:36pm 28 32 mph 1025.5mb 45f 40f
5:30pm 28 33 mph 1025.5mb 45f 40f
5:24pm 29 33 mph 1025.5mb 45f 39f
5:18pm 30 39 mph 1025.3mb 45f 40f
5:12pm 31 37 mph 1025.3mb 45f 40f
5:06pm 29 34 mph 1025.2mb 45f 40f
5:00pm 31 38 mph 1025.1mb 45f 40f
4:54pm 30 37 mph 1025mb 45f 40f
4:48pm 31 38 mph 1024.9mb 45f 39f
4:42pm 32 38 mph 1024.7mb 44f 39f
4:36pm 28 34 mph 1024.6mb 45f 40f
4:30pm 29 34 mph 1024.4mb 45f 40f
4:24pm 21 36 mph 1024.3mb 45f 40f
4:18pm 29 33 mph 1023.9mb 45f 39f
4:12pm 30 38 mph 1023.8mb 44f 39f
4:06pm 6 16 mph 1024mb 45f 41f
4:00pm 32 38 mph 1024mb 45f 40f
3:54pm 28 34 mph 1023.9mb 45f 40f
3:48pm 30 36 mph 1023.8mb 45f 40f
3:42pm 31 39 mph 1023.7mb 45f 40f
3:36pm 30 37 mph 1023.6mb 45f 40f
3:30pm 30 34 mph 1023.7mb 46f 40f
3:24pm 31 38 mph 1023.7mb 46f 40f
3:18pm 31 39 mph 1023.6mb 46f 40f
3:12pm 28 34 mph 1023.6mb 46f 40f
3:06pm 26 33 mph 1023.5mb 46f 40f
3:00pm 31 37 mph 1023.5mb 46f 39f
2:54pm 26 31 mph 1023.5mb 46f 39f
2:48pm 28 36 mph 1023.6mb 45f 40f
2:42pm 29 34 mph 1023.6mb 45f 40f
2:36pm 29 36 mph 1023.4mb 45f 39f
2:30pm 29 37 mph 1023.4mb 45f 40f
2:24pm 28 34 mph 1023.3mb 45f 39f
2:18pm 33 40 mph 1023.3mb 45f 39f
2:12pm 30 37 mph 1023.3mb 45f 39f
2:06pm 32 40 mph 1023.3mb 45f 39f